createdAt,value
2022-10-13T00:00:10.831Z,4.16
2022-10-13T00:05:17.931Z,3.48
2022-10-13T00:10:24.820Z,3.62
2022-10-13T00:15:31.959Z,3.54
2022-10-13T00:20:38.861Z,3.34
2022-10-13T00:25:45.919Z,3.28
2022-10-13T00:30:52.848Z,3.10
2022-10-13T00:35:59.962Z,3.01
2022-10-13T00:41:06.899Z,2.91
2022-10-13T00:46:13.930Z,3.58
2022-10-13T00:51:20.855Z,3.16
2022-10-13T00:56:27.885Z,3.00
2022-10-13T01:01:34.800Z,2.91
2022-10-13T01:06:41.839Z,3.51
2022-10-13T01:11:48.738Z,2.72
2022-10-13T01:16:55.830Z,2.62
2022-10-13T01:22:02.705Z,3.26
2022-10-13T01:27:09.758Z,2.55
2022-10-13T01:32:17.104Z,2.67
2022-10-13T01:37:23.724Z,2.83
2022-10-13T01:42:30.655Z,2.59
2022-10-13T01:47:37.674Z,2.87
2022-10-13T01:52:44.630Z,2.61
2022-10-13T01:57:51.668Z,2.87
2022-10-13T02:02:58.618Z,2.81
2022-10-13T02:08:05.652Z,3.24
2022-10-13T02:13:12.585Z,3.18
2022-10-13T02:18:19.504Z,2.66
2022-10-13T02:23:26.581Z,2.97
2022-10-13T02:28:33.505Z,3.22
2022-10-13T02:33:40.351Z,3.53
2022-10-13T02:38:47.217Z,3.51
2022-10-13T02:43:54.258Z,4.46
2022-10-13T02:49:01.155Z,3.89
2022-10-13T02:54:08.216Z,4.36
2022-10-13T02:59:15.095Z,4.69
2022-10-13T03:04:22.040Z,3.89
2022-10-13T03:09:28.910Z,4.28
2022-10-13T03:14:35.969Z,4.22
2022-10-13T03:19:42.900Z,4.03
2022-10-13T03:24:49.929Z,4.50
2022-10-13T03:29:56.844Z,4.50
2022-10-13T03:35:03.947Z,4.26
2022-10-13T03:40:10.842Z,4.58
2022-10-13T03:45:17.896Z,4.23
2022-10-13T03:50:24.820Z,4.36
2022-10-13T03:55:31.744Z,4.47
2022-10-13T04:00:38.691Z,4.81
2022-10-13T04:05:45.785Z,5.37
2022-10-13T04:10:52.697Z,5.31
2022-10-13T04:15:59.869Z,5.21
2022-10-13T04:21:06.798Z,5.26
2022-10-13T04:26:13.820Z,6.05
2022-10-13T04:31:20.764Z,6.16
2022-10-13T04:36:27.825Z,5.58
2022-10-13T04:41:34.742Z,6.38
2022-10-13T04:46:41.771Z,5.05
2022-10-13T04:51:48.689Z,4.90
2022-10-13T04:56:55.749Z,4.34
2022-10-13T05:02:02.650Z,4.17
2022-10-13T05:07:18.373Z,3.70
2022-10-13T05:12:16.236Z,4.08
2022-10-13T05:17:23.161Z,3.89
2022-10-13T05:22:30.197Z,3.82
2022-10-13T05:27:37.117Z,3.93
2022-10-13T05:32:44.226Z,4.34
2022-10-13T05:37:51.111Z,4.32
2022-10-13T05:42:58.102Z,4.77
2022-10-13T05:48:05.020Z,4.77
2022-10-13T05:53:12.056Z,5.64
2022-10-13T05:58:18.990Z,5.14
2022-10-13T06:03:26.015Z,5.51
2022-10-13T06:08:32.978Z,6.06
2022-10-13T06:13:39.898Z,5.94
2022-10-13T06:18:46.974Z,6.11
2022-10-13T06:23:53.903Z,7.38
2022-10-13T06:29:01.160Z,5.59
2022-10-13T06:34:08.095Z,6.36
2022-10-13T06:39:15.222Z,6.75
2022-10-13T06:44:22.094Z,6.59
2022-10-13T06:49:29.109Z,6.01
2022-10-13T06:54:36.085Z,5.69
2022-10-13T06:59:43.162Z,5.55
2022-10-13T07:04:50.075Z,5.20
2022-10-13T07:09:57.109Z,6.36
2022-10-13T07:15:03.974Z,5.96
2022-10-13T07:20:11.079Z,5.24
2022-10-13T07:25:17.988Z,4.96
2022-10-13T07:30:25.189Z,5.19
2022-10-13T07:35:32.165Z,5.95
2022-10-13T07:40:39.258Z,5.57
2022-10-13T07:45:46.206Z,6.35
2022-10-13T07:50:53.225Z,5.31
2022-10-13T07:56:00.209Z,6.30
2022-10-13T08:01:07.176Z,6.22
2022-10-13T08:06:14.185Z,6.15
2022-10-13T08:11:21.245Z,5.50
2022-10-13T08:16:28.206Z,6.03
2022-10-13T08:21:58.134Z,6.86
2022-10-13T08:26:41.840Z,6.07
2022-10-13T08:36:55.546Z,6.93
2022-10-13T08:42:02.660Z,6.08
2022-10-13T08:47:09.644Z,7.40
2022-10-13T08:52:16.839Z,7.50
2022-10-13T08:57:23.811Z,7.23
2022-10-13T09:02:30.622Z,6.31
2022-10-13T09:07:37.525Z,7.27
2022-10-13T09:12:44.529Z,7.03
2022-10-13T09:17:51.489Z,6.26
2022-10-13T09:22:58.661Z,6.70
2022-10-13T09:28:05.656Z,5.76
2022-10-13T09:33:12.669Z,6.38
2022-10-13T09:38:19.544Z,6.15
2022-10-13T09:43:26.655Z,6.94
2022-10-13T09:48:33.561Z,7.41
2022-10-13T09:53:40.604Z,7.74
2022-10-13T09:58:47.541Z,7.83
2022-10-13T10:03:54.684Z,8.50
2022-10-13T10:09:04.176Z,8.72
2022-10-13T10:14:08.405Z,10.26
2022-10-13T10:19:15.311Z,10.30
2022-10-13T10:24:22.409Z,11.03
2022-10-13T10:29:29.353Z,13.23
2022-10-13T10:34:36.418Z,13.40
2022-10-13T10:39:43.331Z,9.23
2022-10-13T10:44:50.342Z,9.95
2022-10-13T10:49:57.226Z,7.07
2022-10-13T10:55:04.406Z,8.11
2022-10-13T11:00:11.476Z,8.33
2022-10-13T11:05:18.502Z,11.85
2022-10-13T11:10:25.472Z,11.28
2022-10-13T11:15:32.447Z,12.47
2022-10-13T11:20:39.453Z,11.11
2022-10-13T11:25:46.468Z,9.91
2022-10-13T11:30:53.447Z,8.98
2022-10-13T11:36:00.542Z,9.86
2022-10-13T11:41:07.455Z,9.44
2022-10-13T11:46:14.536Z,10.24
2022-10-13T11:51:21.407Z,11.54
2022-10-13T11:56:28.452Z,11.53
2022-10-13T12:01:35.352Z,10.68
2022-10-13T12:06:42.249Z,12.50
2022-10-13T12:11:49.239Z,10.40
2022-10-13T12:16:57.550Z,9.92
2022-10-13T12:22:04.491Z,8.97
2022-10-13T12:27:11.575Z,8.52
2022-10-13T12:32:18.532Z,6.24
2022-10-13T12:37:25.537Z,6.30
2022-10-13T12:42:32.402Z,5.69
2022-10-13T12:47:39.441Z,5.80
2022-10-13T12:52:46.393Z,5.67
2022-10-13T12:57:53.466Z,6.90
2022-10-13T13:03:00.351Z,7.53
2022-10-13T13:08:07.311Z,7.49
2022-10-13T13:13:14.302Z,8.09
2022-10-13T13:18:22.564Z,25.37
2022-10-13T13:23:30.569Z,13.98
2022-10-13T13:28:37.531Z,12.76
2022-10-13T13:33:44.514Z,9.95
2022-10-13T13:38:51.448Z,10.74
2022-10-13T13:43:58.382Z,11.26
2022-10-13T13:49:05.391Z,11.46
2022-10-13T13:54:12.354Z,11.88
2022-10-13T13:59:19.373Z,10.33
2022-10-13T14:04:26.374Z,10.19
2022-10-13T14:09:33.480Z,8.63
2022-10-13T14:14:40.462Z,7.37
2022-10-13T14:19:47.604Z,7.66
2022-10-13T14:24:54.522Z,7.87
2022-10-13T14:30:01.862Z,7.38
2022-10-13T14:35:08.650Z,7.51
2022-10-13T14:40:15.714Z,7.75
2022-10-13T14:45:22.690Z,7.10
2022-10-13T14:50:29.784Z,7.56
2022-10-13T14:55:36.779Z,9.58
2022-10-13T15:00:43.834Z,8.70
2022-10-13T15:05:50.780Z,7.81
2022-10-13T15:10:58.623Z,8.08
2022-10-13T15:16:05.517Z,8.88
2022-10-13T15:21:12.589Z,8.67
2022-10-13T15:26:19.525Z,8.16
2022-10-13T15:31:26.651Z,8.39
2022-10-13T15:36:33.584Z,8.15
2022-10-13T15:41:40.665Z,8.02
2022-10-13T15:47:06.661Z,7.82
2022-10-13T15:51:54.086Z,7.76
2022-10-13T15:57:01.006Z,14.72
2022-10-13T16:02:08.083Z,7.52
2022-10-13T16:07:15.060Z,6.94
2022-10-13T16:12:22.544Z,7.17
2022-10-13T16:17:29.297Z,7.21
2022-10-13T16:22:36.260Z,6.64
2022-10-13T16:27:44.586Z,6.74
2022-10-13T16:32:49.737Z,5.90
2022-10-13T16:37:56.650Z,7.26
2022-10-13T16:43:03.779Z,5.56
2022-10-13T16:48:10.753Z,6.24
2022-10-13T16:53:17.896Z,5.67
2022-10-13T16:58:24.841Z,5.31
2022-10-13T17:03:31.911Z,5.06
2022-10-13T17:08:38.862Z,5.19
2022-10-13T17:13:45.920Z,5.30
2022-10-13T17:18:52.889Z,5.38
2022-10-13T17:23:59.894Z,6.55
2022-10-13T17:29:06.947Z,5.74
2022-10-13T17:34:13.893Z,5.16
2022-10-13T17:39:21.055Z,5.66
2022-10-13T17:44:27.972Z,5.50
2022-10-13T17:49:39.306Z,4.78
2022-10-13T17:54:36.311Z,5.22
2022-10-13T17:59:43.458Z,4.61
2022-10-13T18:04:50.526Z,4.24
2022-10-13T18:09:58.662Z,4.03
2022-10-13T18:15:05.618Z,4.48
2022-10-13T18:20:12.718Z,3.98
2022-10-13T18:25:19.715Z,4.58
2022-10-13T18:30:26.846Z,4.59
2022-10-13T18:35:33.801Z,3.99
2022-10-13T18:40:41.008Z,3.92
2022-10-13T18:45:47.881Z,4.02
2022-10-13T18:50:56.122Z,3.89
2022-10-13T18:56:03.026Z,3.57
2022-10-13T19:01:10.314Z,3.86
2022-10-13T19:06:17.155Z,3.99
2022-10-13T19:11:24.236Z,3.60
2022-10-13T19:16:31.193Z,3.62
2022-10-13T19:21:38.239Z,3.80
2022-10-13T19:26:45.128Z,4.11
2022-10-13T19:31:52.199Z,4.64
2022-10-13T19:36:59.206Z,3.76
2022-10-13T19:42:06.335Z,3.85
2022-10-13T19:47:13.273Z,3.49
2022-10-13T19:52:20.361Z,4.24
2022-10-13T19:57:27.258Z,4.43
2022-10-13T20:02:34.351Z,3.65
2022-10-13T20:07:42.420Z,3.60
2022-10-13T20:12:49.491Z,3.87
2022-10-13T20:17:56.495Z,3.70
2022-10-13T20:23:03.658Z,3.33
2022-10-13T20:28:10.560Z,3.70
2022-10-13T20:33:17.996Z,3.44
2022-10-13T20:38:24.955Z,3.21
2022-10-13T20:43:32.036Z,3.72
2022-10-13T20:49:05.139Z,3.72
2022-10-13T20:53:46.647Z,3.20
2022-10-13T20:58:54.168Z,3.44
2022-10-13T21:04:01.230Z,3.15
2022-10-13T21:09:08.178Z,3.29
2022-10-13T21:14:15.323Z,3.86
2022-10-13T21:19:22.283Z,3.97
2022-10-13T21:24:29.451Z,3.71
2022-10-13T21:29:36.368Z,3.73
2022-10-13T21:34:43.490Z,3.26
2022-10-13T21:39:50.495Z,4.03
2022-10-13T21:44:57.545Z,3.87
2022-10-13T21:50:04.496Z,3.72
2022-10-13T21:55:11.492Z,3.18
2022-10-13T22:00:18.362Z,3.76
2022-10-13T22:05:25.412Z,3.79
2022-10-13T22:10:32.310Z,3.37
2022-10-13T22:15:39.419Z,3.66
2022-10-13T22:20:46.410Z,3.42
2022-10-13T22:25:53.331Z,5.08
2022-10-13T22:31:00.303Z,5.08
2022-10-13T22:36:07.237Z,6.92
2022-10-13T22:41:14.285Z,9.30
2022-10-13T22:46:21.226Z,6.25
2022-10-13T22:51:28.264Z,4.72
2022-10-13T22:56:35.228Z,4.98
2022-10-13T23:01:42.187Z,6.88
2022-10-13T23:06:49.082Z,5.46
2022-10-13T23:11:59.699Z,4.81
2022-10-13T23:17:02.612Z,4.61
2022-10-13T23:22:09.663Z,4.85
2022-10-13T23:27:16.562Z,4.10
2022-10-13T23:32:23.664Z,8.34
2022-10-13T23:37:30.505Z,11.13
2022-10-13T23:42:37.485Z,6.97
2022-10-13T23:47:44.423Z,4.57
2022-10-13T23:52:51.550Z,3.87
2022-10-13T23:57:58.542Z,3.99
